Terminal Aerodrome Forecast
Issued by NWS Duluth, MN

Home | Current Version | Previous Version | Text Only | Print | Product List | Glossary On
Versions: 1 2 3 4 5 6 7 8 9 10 11 12 13 14 15 16 17 18 19 20 21
000
FTUS43 KDLH 011138
TAFDLH
TAF
KDLH 011138Z 0112/0212 25006KT 5SM BR SCT050 SCT200
     FM011300 27007KT P6SM SCT050 BKN200
     FM011700 26009G15KT P6SM FEW040 SCT150
     FM020000 24005KT P6SM SCT120=

USA.gov is the U.S. government's official web portal to all federal, state and local government web resources and services.